sensor_id;sensor_type;location;lat;lon;timestamp;temperature;humidity
22106;DHT22;11219;51.486;6.950;2022-07-23T00:01:21;18.10;98.20
22106;DHT22;11219;51.486;6.950;2022-07-23T00:03:48;18.20;98.40
22106;DHT22;11219;51.486;6.950;2022-07-23T00:06:15;18.10;98.50
22106;DHT22;11219;51.486;6.950;2022-07-23T00:08:42;18.10;98.70
22106;DHT22;11219;51.486;6.950;2022-07-23T00:11:09;18.00;99.00
22106;DHT22;11219;51.486;6.950;2022-07-23T00:13:36;18.00;99.20
22106;DHT22;11219;51.486;6.950;2022-07-23T00:16:04;18.00;99.40
22106;DHT22;11219;51.486;6.950;2022-07-23T00:18:32;18.00;99.60
22106;DHT22;11219;51.486;6.950;2022-07-23T00:20:59;18.00;99.70
22106;DHT22;11219;51.486;6.950;2022-07-23T00:23:26;18.20;99.90
22106;DHT22;11219;51.486;6.950;2022-07-23T00:25:54;18.60;99.90
22106;DHT22;11219;51.486;6.950;2022-07-23T00:28:21;18.40;99.90
22106;DHT22;11219;51.486;6.950;2022-07-23T00:30:48;18.00;99.90
22106;DHT22;11219;51.486;6.950;2022-07-23T00:33:15;18.00;99.90
22106;DHT22;11219;51.486;6.950;2022-07-23T00:35:43;18.10;99.90
22106;DHT22;11219;51.486;6.950;2022-07-23T00:38:10;18.10;99.90
22106;DHT22;11219;51.486;6.950;2022-07-23T00:40:38;18.20;99.90
22106;DHT22;11219;51.486;6.950;2022-07-23T00:43:05;18.30;99.90
22106;DHT22;11219;51.486;6.950;2022-07-23T00:45:32;19.70;99.90
22106;DHT22;11219;51.486;6.950;2022-07-23T00:48:00;18.40;99.90
22106;DHT22;11219;51.486;6.950;2022-07-23T00:50:27;18.40;99.90
22106;DHT22;11219;51.486;6.950;2022-07-23T00:52:56;20.30;99.90
22106;DHT22;11219;51.486;6.950;2022-07-23T00:55:23;18.50;99.90
22106;DHT22;11219;51.486;6.950;2022-07-23T00:57:50;18.50;99.90
22106;DHT22;11219;51.486;6.950;2022-07-23T01:00:19;18.50;99.90
22106;DHT22;11219;51.486;6.950;2022-07-23T01:02:46;18.70;99.90
22106;DHT22;11219;51.486;6.950;2022-07-23T01:05:13;18.40;99.90
22106;DHT22;11219;51.486;6.950;2022-07-23T01:07:40;18.40;99.90
22106;DHT22;11219;51.486;6.950;2022-07-23T01:10:09;18.40;99.90
22106;DHT22;11219;51.486;6.950;2022-07-23T01:12:50;20.50;99.90
22106;DHT22;11219;51.486;6.950;2022-07-23T01:15:17;18.70;99.90
22106;DHT22;11219;51.486;6.950;2022-07-23T01:17:43;18.30;99.90
22106;DHT22;11219;51.486;6.950;2022-07-23T01:20:10;18.30;99.90
22106;DHT22;11219;51.486;6.950;2022-07-23T01:22:39;17.20;99.90
22106;DHT22;11219;51.486;6.950;2022-07-23T01:25:07;18.50;99.90
22106;DHT22;11219;51.486;6.950;2022-07-23T01:27:34;18.40;99.90
22106;DHT22;11219;51.486;6.950;2022-07-23T01:30:01;18.40;99.90
22106;DHT22;11219;51.486;6.950;2022-07-23T01:32:28;18.40;99.90
22106;DHT22;11219;51.486;6.950;2022-07-23T01:34:55;19.40;99.90
22106;DHT22;11219;51.486;6.950;2022-07-23T01:37:22;18.50;99.90
22106;DHT22;11219;51.486;6.950;2022-07-23T01:39:50;18.50;99.90
22106;DHT22;11219;51.486;6.950;2022-07-23T01:42:17;18.50;99.90
22106;DHT22;11219;51.486;6.950;2022-07-23T01:44:44;19.30;99.90
22106;DHT22;11219;51.486;6.950;2022-07-23T01:47:11;19.00;99.90
22106;DHT22;11219;51.486;6.950;2022-07-23T01:49:38;19.80;99.90
22106;DHT22;11219;51.486;6.950;2022-07-23T01:52:05;19.70;99.90
22106;DHT22;11219;51.486;6.950;2022-07-23T01:54:37;19.70;99.90
22106;DHT22;11219;51.486;6.950;2022-07-23T01:57:05;18.60;99.90
22106;DHT22;11219;51.486;6.950;2022-07-23T01:59:32;18.50;99.90
22106;DHT22;11219;51.486;6.950;2022-07-23T02:01:59;18.50;99.90
22106;DHT22;11219;51.486;6.950;2022-07-23T02:04:26;18.50;99.90
22106;DHT22;11219;51.486;6.950;2022-07-23T02:06:54;18.50;99.90
22106;DHT22;11219;51.486;6.950;2022-07-23T02:09:21;19.80;99.90
22106;DHT22;11219;51.486;6.950;2022-07-23T02:12:03;18.40;99.90
22106;DHT22;11219;51.486;6.950;2022-07-23T02:14:30;18.40;99.90
22106;DHT22;11219;51.486;6.950;2022-07-23T02:16:57;19.00;99.90
22106;DHT22;11219;51.486;6.950;2022-07-23T02:19:24;18.30;99.90
22106;DHT22;11219;51.486;6.950;2022-07-23T02:21:51;18.30;99.90
22106;DHT22;11219;51.486;6.950;2022-07-23T02:24:20;18.70;99.90
22106;DHT22;11219;51.486;6.950;2022-07-23T02:26:47;18.20;99.90
22106;DHT22;11219;51.486;6.950;2022-07-23T02:29:15;18.50;99.90
22106;DHT22;11219;51.486;6.950;2022-07-23T02:31:42;19.60;99.90
22106;DHT22;11219;51.486;6.950;2022-07-23T02:34:09;19.40;99.90
22106;DHT22;11219;51.486;6.950;2022-07-23T02:36:37;18.00;99.90
22106;DHT22;11219;51.486;6.950;2022-07-23T02:39:05;18.60;99.90
22106;DHT22;11219;51.486;6.950;2022-07-23T02:41:32;18.40;99.90
22106;DHT22;11219;51.486;6.950;2022-07-23T02:43:58;18.20;99.90
22106;DHT22;11219;51.486;6.950;2022-07-23T02:46:27;18.00;99.90
22106;DHT22;11219;51.486;6.950;2022-07-23T02:48:54;18.60;99.90
22106;DHT22;11219;51.486;6.950;2022-07-23T02:51:21;17.80;99.90
22106;DHT22;11219;51.486;6.950;2022-07-23T02:53:47;18.90;99.90
22106;DHT22;11219;51.486;6.950;2022-07-23T02:56:14;18.10;99.90
22106;DHT22;11219;51.486;6.950;2022-07-23T02:58:41;18.20;99.90
22106;DHT22;11219;51.486;6.950;2022-07-23T03:01:08;17.90;99.90
22106;DHT22;11219;51.486;6.950;2022-07-23T03:03:37;17.90;99.90
22106;DHT22;11219;51.486;6.950;2022-07-23T03:06:04;18.80;99.90
22106;DHT22;11219;51.486;6.950;2022-07-23T03:08:31;17.90;99.90
22106;DHT22;11219;51.486;6.950;2022-07-23T03:10:58;17.90;99.90
22106;DHT22;11219;51.486;6.950;2022-07-23T03:13:24;19.00;99.90
22106;DHT22;11219;51.486;6.950;2022-07-23T03:15:51;18.00;99.90
22106;DHT22;11219;51.486;6.950;2022-07-23T03:18:18;17.80;99.90
22106;DHT22;11219;51.486;6.950;2022-07-23T03:20:47;17.70;99.90
22106;DHT22;11219;51.486;6.950;2022-07-23T03:23:13;17.70;99.90
22106;DHT22;11219;51.486;6.950;2022-07-23T03:25:40;19.40;99.90
22106;DHT22;11219;51.486;6.950;2022-07-23T03:28:07;17.50;99.90
22106;DHT22;11219;51.486;6.950;2022-07-23T03:30:34;19.00;99.90
22106;DHT22;11219;51.486;6.950;2022-07-23T03:33:01;19.00;99.90
22106;DHT22;11219;51.486;6.950;2022-07-23T03:35:27;17.30;99.90
22106;DHT22;11219;51.486;6.950;2022-07-23T03:37:56;17.90;99.90
22106;DHT22;11219;51.486;6.950;2022-07-23T03:40:23;19.00;99.90
22106;DHT22;11219;51.486;6.950;2022-07-23T03:42:49;18.50;99.90
22106;DHT22;11219;51.486;6.950;2022-07-23T03:45:16;17.20;99.90
22106;DHT22;11219;51.486;6.950;2022-07-23T03:47:43;17.10;99.90
22106;DHT22;11219;51.486;6.950;2022-07-23T03:50:10;17.10;99.90
22106;DHT22;11219;51.486;6.950;2022-07-23T03:52:37;18.50;99.90
22106;DHT22;11219;51.486;6.950;2022-07-23T03:55:07;18.50;99.90
22106;DHT22;11219;51.486;6.950;2022-07-23T03:57:51;16.90;99.90
22106;DHT22;11219;51.486;6.950;2022-07-23T04:00:18;16.90;99.90
22106;DHT22;11219;51.486;6.950;2022-07-23T04:02:45;19.60;99.90
22106;DHT22;11219;51.486;6.950;2022-07-23T04:05:12;16.80;99.90
22106;DHT22;11219;51.486;6.950;2022-07-23T04:07:39;17.20;99.90
22106;DHT22;11219;51.486;6.950;2022-07-23T04:10:08;18.20;99.90
22106;DHT22;11219;51.486;6.950;2022-07-23T04:12:35;16.80;99.90
22106;DHT22;11219;51.486;6.950;2022-07-23T04:15:02;16.80;99.90
22106;DHT22;11219;51.486;6.950;2022-07-23T04:19:57;16.90;99.90
22106;DHT22;11219;51.486;6.950;2022-07-23T04:22:23;16.90;99.90
22106;DHT22;11219;51.486;6.950;2022-07-23T04:24:50;16.90;99.90
22106;DHT22;11219;51.486;6.950;2022-07-23T04:27:19;16.90;99.90
22106;DHT22;11219;51.486;6.950;2022-07-23T04:29:45;16.90;99.90
22106;DHT22;11219;51.486;6.950;2022-07-23T04:32:12;17.70;99.90
22106;DHT22;11219;51.486;6.950;2022-07-23T04:34:39;19.30;99.90
22106;DHT22;11219;51.486;6.950;2022-07-23T04:37:06;17.00;99.90
22106;DHT22;11219;51.486;6.950;2022-07-23T04:42:00;17.10;99.90
22106;DHT22;11219;51.486;6.950;2022-07-23T04:44:28;18.20;99.90
22106;DHT22;11219;51.486;6.950;2022-07-23T04:46:55;17.20;99.90
22106;DHT22;11219;51.486;6.950;2022-07-23T04:49:22;18.70;99.90
22106;DHT22;11219;51.486;6.950;2022-07-23T04:51:49;17.30;99.90
22106;DHT22;11219;51.486;6.950;2022-07-23T04:54:15;18.40;99.90
22106;DHT22;11219;51.486;6.950;2022-07-23T04:56:43;17.40;99.90
22106;DHT22;11219;51.486;6.950;2022-07-23T04:59:10;17.40;99.90
22106;DHT22;11219;51.486;6.950;2022-07-23T05:01:38;19.00;99.90
22106;DHT22;11219;51.486;6.950;2022-07-23T05:04:05;17.50;99.90
22106;DHT22;11219;51.486;6.950;2022-07-23T05:06:32;17.50;99.90
22106;DHT22;11219;51.486;6.950;2022-07-23T05:08:58;17.60;99.90
22106;DHT22;11219;51.486;6.950;2022-07-23T05:11:25;18.70;99.90
22106;DHT22;11219;51.486;6.950;2022-07-23T05:13:52;17.70;99.90
22106;DHT22;11219;51.486;6.950;2022-07-23T05:16:19;18.20;99.90
22106;DHT22;11219;51.486;6.950;2022-07-23T05:18:47;17.80;99.90
22106;DHT22;11219;51.486;6.950;2022-07-23T05:21:14;18.10;99.90
22106;DHT22;11219;51.486;6.950;2022-07-23T05:23:43;17.80;99.90
22106;DHT22;11219;51.486;6.950;2022-07-23T05:26:10;17.90;99.90
22106;DHT22;11219;51.486;6.950;2022-07-23T05:28:37;17.90;99.90
22106;DHT22;11219;51.486;6.950;2022-07-23T05:31:04;18.00;99.90
22106;DHT22;11219;51.486;6.950;2022-07-23T05:33:31;18.10;99.90
22106;DHT22;11219;51.486;6.950;2022-07-23T05:36:01;18.10;99.90
22106;DHT22;11219;51.486;6.950;2022-07-23T05:38:29;18.60;99.90
22106;DHT22;11219;51.486;6.950;2022-07-23T05:40:56;18.80;99.90
22106;DHT22;11219;51.486;6.950;2022-07-23T05:43:23;18.30;99.90
22106;DHT22;11219;51.486;6.950;2022-07-23T05:45:49;18.80;99.90
22106;DHT22;11219;51.486;6.950;2022-07-23T05:48:17;18.50;99.90
22106;DHT22;11219;51.486;6.950;2022-07-23T05:50:43;20.90;99.90
22106;DHT22;11219;51.486;6.950;2022-07-23T05:53:12;19.30;99.90
22106;DHT22;11219;51.486;6.950;2022-07-23T05:55:38;18.90;99.90
22106;DHT22;11219;51.486;6.950;2022-07-23T05:58:05;19.20;99.90
22106;DHT22;11219;51.486;6.950;2022-07-23T06:00:33;19.10;99.90
22106;DHT22;11219;51.486;6.950;2022-07-23T06:02:59;19.30;99.90
22106;DHT22;11219;51.486;6.950;2022-07-23T06:05:26;20.40;99.90
22106;DHT22;11219;51.486;6.950;2022-07-23T06:07:53;21.90;99.90
22106;DHT22;11219;51.486;6.950;2022-07-23T06:10:21;23.70;99.90
22106;DHT22;11219;51.486;6.950;2022-07-23T06:12:48;24.80;98.00
22106;DHT22;11219;51.486;6.950;2022-07-23T06:15:15;25.90;96.70
22106;DHT22;11219;51.486;6.950;2022-07-23T06:17:42;26.90;95.10
22106;DHT22;11219;51.486;6.950;2022-07-23T06:20:10;27.70;94.40
22106;DHT22;11219;51.486;6.950;2022-07-23T06:22:37;28.50;93.10
22106;DHT22;11219;51.486;6.950;2022-07-23T06:25:05;29.20;92.00
22106;DHT22;11219;51.486;6.950;2022-07-23T06:27:34;29.90;91.00
22106;DHT22;11219;51.486;6.950;2022-07-23T06:30:00;31.10;89.80
22106;DHT22;11219;51.486;6.950;2022-07-23T06:32:27;30.80;87.90
22106;DHT22;11219;51.486;6.950;2022-07-23T06:34:54;31.30;86.50
22106;DHT22;11219;51.486;6.950;2022-07-23T06:37:21;31.40;84.60
22106;DHT22;11219;51.486;6.950;2022-07-23T06:39:48;33.90;86.30
22106;DHT22;11219;51.486;6.950;2022-07-23T06:42:15;30.10;83.30
22106;DHT22;11219;51.486;6.950;2022-07-23T06:44:43;28.80;84.60
22106;DHT22;11219;51.486;6.950;2022-07-23T06:47:10;27.90;85.60
22106;DHT22;11219;51.486;6.950;2022-07-23T06:49:36;27.80;85.20
22106;DHT22;11219;51.486;6.950;2022-07-23T06:52:04;28.00;84.10
22106;DHT22;11219;51.486;6.950;2022-07-23T06:54:31;28.00;82.90
22106;DHT22;11219;51.486;6.950;2022-07-23T06:56:58;28.30;82.50
22106;DHT22;11219;51.486;6.950;2022-07-23T06:59:24;29.40;80.20
22106;DHT22;11219;51.486;6.950;2022-07-23T07:01:52;30.90;77.50
22106;DHT22;11219;51.486;6.950;2022-07-23T07:04:19;31.40;74.40
22106;DHT22;11219;51.486;6.950;2022-07-23T07:06:46;35.20;74.40
22106;DHT22;11219;51.486;6.950;2022-07-23T07:09:13;32.70;69.60
22106;DHT22;11219;51.486;6.950;2022-07-23T07:11:40;32.80;67.70
22106;DHT22;11219;51.486;6.950;2022-07-23T07:14:07;33.10;66.50
22106;DHT22;11219;51.486;6.950;2022-07-23T07:16:34;33.40;64.60
22106;DHT22;11219;51.486;6.950;2022-07-23T07:19:02;33.60;63.20
22106;DHT22;11219;51.486;6.950;2022-07-23T07:21:29;33.80;62.00
22106;DHT22;11219;51.486;6.950;2022-07-23T07:23:55;34.40;61.30
22106;DHT22;11219;51.486;6.950;2022-07-23T07:26:22;35.30;59.60
22106;DHT22;11219;51.486;6.950;2022-07-23T07:28:49;33.90;57.70
22106;DHT22;11219;51.486;6.950;2022-07-23T07:31:16;33.30;59.00
22106;DHT22;11219;51.486;6.950;2022-07-23T07:33:43;32.90;58.70
22106;DHT22;11219;51.486;6.950;2022-07-23T07:36:12;31.70;59.20
22106;DHT22;11219;51.486;6.950;2022-07-23T07:38:38;31.40;62.20
22106;DHT22;11219;51.486;6.950;2022-07-23T07:41:05;31.60;59.60
22106;DHT22;11219;51.486;6.950;2022-07-23T07:43:33;32.40;58.40
22106;DHT22;11219;51.486;6.950;2022-07-23T07:46:00;32.50;57.50
22106;DHT22;11219;51.486;6.950;2022-07-23T07:48:27;32.70;57.30
22106;DHT22;11219;51.486;6.950;2022-07-23T07:50:53;33.20;55.70
22106;DHT22;11219;51.486;6.950;2022-07-23T07:53:22;33.40;55.30
22106;DHT22;11219;51.486;6.950;2022-07-23T07:55:48;33.40;55.00
22106;DHT22;11219;51.486;6.950;2022-07-23T07:58:15;32.70;55.10
22106;DHT22;11219;51.486;6.950;2022-07-23T08:00:43;33.00;55.40
22106;DHT22;11219;51.486;6.950;2022-07-23T08:03:09;33.20;53.50
22106;DHT22;11219;51.486;6.950;2022-07-23T08:05:36;33.40;53.50
22106;DHT22;11219;51.486;6.950;2022-07-23T08:08:04;33.90;52.20
22106;DHT22;11219;51.486;6.950;2022-07-23T08:10:32;34.00;51.00
22106;DHT22;11219;51.486;6.950;2022-07-23T08:12:59;33.70;51.00
22106;DHT22;11219;51.486;6.950;2022-07-23T08:15:28;33.80;50.90
22106;DHT22;11219;51.486;6.950;2022-07-23T08:17:56;34.40;50.60
22106;DHT22;11219;51.486;6.950;2022-07-23T08:20:24;34.30;49.80
22106;DHT22;11219;51.486;6.950;2022-07-23T08:22:54;34.70;49.50
22106;DHT22;11219;51.486;6.950;2022-07-23T08:25:23;34.90;48.90
22106;DHT22;11219;51.486;6.950;2022-07-23T08:27:51;34.60;48.30
22106;DHT22;11219;51.486;6.950;2022-07-23T08:30:19;33.70;49.00
22106;DHT22;11219;51.486;6.950;2022-07-23T08:32:57;32.70;49.60
22106;DHT22;11219;51.486;6.950;2022-07-23T08:35:27;33.00;49.50
22106;DHT22;11219;51.486;6.950;2022-07-23T08:37:55;33.00;49.10
22106;DHT22;11219;51.486;6.950;2022-07-23T08:40:23;33.30;49.10
22106;DHT22;11219;51.486;6.950;2022-07-23T08:42:53;33.50;48.40
22106;DHT22;11219;51.486;6.950;2022-07-23T08:45:22;33.80;47.80
22106;DHT22;11219;51.486;6.950;2022-07-23T08:47:50;34.20;47.60
22106;DHT22;11219;51.486;6.950;2022-07-23T08:50:18;33.80;47.60
22106;DHT22;11219;51.486;6.950;2022-07-23T08:52:45;33.90;47.40
22106;DHT22;11219;51.486;6.950;2022-07-23T08:55:12;33.90;46.90
22106;DHT22;11219;51.486;6.950;2022-07-23T08:57:39;34.10;46.90
22106;DHT22;11219;51.486;6.950;2022-07-23T09:00:09;34.70;46.50
22106;DHT22;11219;51.486;6.950;2022-07-23T09:02:41;34.00;46.20
22106;DHT22;11219;51.486;6.950;2022-07-23T09:05:08;34.70;47.20
22106;DHT22;11219;51.486;6.950;2022-07-23T09:07:37;34.90;46.90
22106;DHT22;11219;51.486;6.950;2022-07-23T09:10:06;35.30;46.70
22106;DHT22;11219;51.486;6.950;2022-07-23T09:12:33;34.20;45.60
22106;DHT22;11219;51.486;6.950;2022-07-23T09:15:04;34.00;45.90
22106;DHT22;11219;51.486;6.950;2022-07-23T09:17:40;35.20;47.00
22106;DHT22;11219;51.486;6.950;2022-07-23T09:20:11;34.20;45.90
22106;DHT22;11219;51.486;6.950;2022-07-23T09:22:39;34.30;46.20
22106;DHT22;11219;51.486;6.950;2022-07-23T09:25:09;34.10;46.20
22106;DHT22;11219;51.486;6.950;2022-07-23T09:27:52;34.00;46.20
22106;DHT22;11219;51.486;6.950;2022-07-23T09:30:20;34.20;46.40
22106;DHT22;11219;51.486;6.950;2022-07-23T09:33:13;35.60;47.40
22106;DHT22;11219;51.486;6.950;2022-07-23T09:35:48;34.30;45.80
22106;DHT22;11219;51.486;6.950;2022-07-23T09:38:15;34.20;45.50
22106;DHT22;11219;51.486;6.950;2022-07-23T09:40:43;34.00;45.60
22106;DHT22;11219;51.486;6.950;2022-07-23T09:43:11;33.90;45.70
22106;DHT22;11219;51.486;6.950;2022-07-23T09:45:38;34.30;45.80
22106;DHT22;11219;51.486;6.950;2022-07-23T09:48:14;34.60;45.90
22106;DHT22;11219;51.486;6.950;2022-07-23T09:50:43;34.10;45.40
22106;DHT22;11219;51.486;6.950;2022-07-23T09:53:10;34.00;45.20
22106;DHT22;11219;51.486;6.950;2022-07-23T09:55:51;34.10;45.70
22106;DHT22;11219;51.486;6.950;2022-07-23T09:58:21;33.30;44.90
22106;DHT22;11219;51.486;6.950;2022-07-23T10:00:52;33.70;45.10
22106;DHT22;11219;51.486;6.950;2022-07-23T10:03:20;32.70;45.50
22106;DHT22;11219;51.486;6.950;2022-07-23T10:05:48;32.50;45.50
22106;DHT22;11219;51.486;6.950;2022-07-23T10:08:18;32.20;45.40
22106;DHT22;11219;51.486;6.950;2022-07-23T10:10:46;31.80;46.00
22106;DHT22;11219;51.486;6.950;2022-07-23T10:13:14;31.10;46.20
22106;DHT22;11219;51.486;6.950;2022-07-23T10:16:04;30.50;47.30
22106;DHT22;11219;51.486;6.950;2022-07-23T10:18:32;29.80;48.60
22106;DHT22;11219;51.486;6.950;2022-07-23T10:21:00;29.40;49.50
22106;DHT22;11219;51.486;6.950;2022-07-23T10:23:35;29.30;50.10
22106;DHT22;11219;51.486;6.950;2022-07-23T10:26:10;28.70;50.10
22106;DHT22;11219;51.486;6.950;2022-07-23T10:29:01;31.60;52.90
22106;DHT22;11219;51.486;6.950;2022-07-23T10:31:38;28.00;51.20
22106;DHT22;11219;51.486;6.950;2022-07-23T10:34:14;27.70;51.50
22106;DHT22;11219;51.486;6.950;2022-07-23T10:36:49;27.50;51.90
22106;DHT22;11219;51.486;6.950;2022-07-23T10:39:19;27.40;52.20
22106;DHT22;11219;51.486;6.950;2022-07-23T10:41:48;27.30;52.60
22106;DHT22;11219;51.486;6.950;2022-07-23T10:44:17;27.20;52.60
22106;DHT22;11219;51.486;6.950;2022-07-23T10:46:56;27.20;52.80
22106;DHT22;11219;51.486;6.950;2022-07-23T10:49:48;27.00;53.00
22106;DHT22;11219;51.486;6.950;2022-07-23T10:52:23;26.80;53.10
22106;DHT22;11219;51.486;6.950;2022-07-23T10:54:53;26.80;53.50
22106;DHT22;11219;51.486;6.950;2022-07-23T10:57:23;26.80;53.70
22106;DHT22;11219;51.486;6.950;2022-07-23T11:00:22;27.10;54.00
22106;DHT22;11219;51.486;6.950;2022-07-23T11:02:50;27.00;53.60
22106;DHT22;11219;51.486;6.950;2022-07-23T11:05:20;26.90;54.40
22106;DHT22;11219;51.486;6.950;2022-07-23T11:08:10;26.90;54.00
22106;DHT22;11219;51.486;6.950;2022-07-23T11:10:41;26.80;53.90
22106;DHT22;11219;51.486;6.950;2022-07-23T11:13:39;26.70;54.10
22106;DHT22;11219;51.486;6.950;2022-07-23T11:16:24;27.00;54.10
22106;DHT22;11219;51.486;6.950;2022-07-23T11:19:09;27.00;54.10
22106;DHT22;11219;51.486;6.950;2022-07-23T11:21:50;26.90;54.00
22106;DHT22;11219;51.486;6.950;2022-07-23T11:24:27;28.10;54.90
22106;DHT22;11219;51.486;6.950;2022-07-23T11:27:00;26.30;54.30
22106;DHT22;11219;51.486;6.950;2022-07-23T11:29:49;26.20;54.90
22106;DHT22;11219;51.486;6.950;2022-07-23T11:32:33;26.40;54.50
22106;DHT22;11219;51.486;6.950;2022-07-23T11:35:01;26.50;54.40
22106;DHT22;11219;51.486;6.950;2022-07-23T11:37:38;28.20;55.40
22106;DHT22;11219;51.486;6.950;2022-07-23T11:40:08;27.00;54.50
22106;DHT22;11219;51.486;6.950;2022-07-23T11:42:39;27.30;54.00
22106;DHT22;11219;51.486;6.950;2022-07-23T11:45:07;27.30;53.80
22106;DHT22;11219;51.486;6.950;2022-07-23T11:47:34;27.40;53.70
22106;DHT22;11219;51.486;6.950;2022-07-23T11:50:04;27.40;53.80
22106;DHT22;11219;51.486;6.950;2022-07-23T11:52:32;27.50;53.90
22106;DHT22;11219;51.486;6.950;2022-07-23T11:55:02;27.50;53.60
22106;DHT22;11219;51.486;6.950;2022-07-23T11:57:31;27.50;53.40
22106;DHT22;11219;51.486;6.950;2022-07-23T12:00:03;27.60;53.50
22106;DHT22;11219;51.486;6.950;2022-07-23T12:02:31;27.80;53.60
22106;DHT22;11219;51.486;6.950;2022-07-23T12:04:58;28.00;53.50
22106;DHT22;11219;51.486;6.950;2022-07-23T12:07:30;28.20;53.10
22106;DHT22;11219;51.486;6.950;2022-07-23T12:09:58;28.30;53.00
22106;DHT22;11219;51.486;6.950;2022-07-23T12:12:27;28.40;53.00
22106;DHT22;11219;51.486;6.950;2022-07-23T12:14:57;31.80;54.60
22106;DHT22;11219;51.486;6.950;2022-07-23T12:17:29;29.10;53.40
22106;DHT22;11219;51.486;6.950;2022-07-23T12:19:57;28.10;53.00
22106;DHT22;11219;51.486;6.950;2022-07-23T12:22:33;28.60;53.60
22106;DHT22;11219;51.486;6.950;2022-07-23T12:25:01;28.00;53.40
22106;DHT22;11219;51.486;6.950;2022-07-23T12:27:32;28.00;53.00
22106;DHT22;11219;51.486;6.950;2022-07-23T12:29:58;27.90;52.70
22106;DHT22;11219;51.486;6.950;2022-07-23T12:32:28;28.10;52.90
22106;DHT22;11219;51.486;6.950;2022-07-23T12:35:06;27.70;52.50
22106;DHT22;11219;51.486;6.950;2022-07-23T12:37:35;27.70;52.20
22106;DHT22;11219;51.486;6.950;2022-07-23T12:40:22;27.80;52.20
22106;DHT22;11219;51.486;6.950;2022-07-23T12:42:53;28.00;51.90
22106;DHT22;11219;51.486;6.950;2022-07-23T12:45:20;29.10;52.20
22106;DHT22;11219;51.486;6.950;2022-07-23T12:50:42;28.20;51.40
22106;DHT22;11219;51.486;6.950;2022-07-23T12:53:12;28.20;50.80
22106;DHT22;11219;51.486;6.950;2022-07-23T12:55:40;28.20;50.60
22106;DHT22;11219;51.486;6.950;2022-07-23T12:58:10;28.30;50.50
22106;DHT22;11219;51.486;6.950;2022-07-23T13:01:05;28.50;50.50
22106;DHT22;11219;51.486;6.950;2022-07-23T13:03:35;28.70;50.20
22106;DHT22;11219;51.486;6.950;2022-07-23T13:06:04;28.80;50.00
22106;DHT22;11219;51.486;6.950;2022-07-23T13:08:32;28.80;49.60
22106;DHT22;11219;51.486;6.950;2022-07-23T13:11:00;28.80;49.80
22106;DHT22;11219;51.486;6.950;2022-07-23T13:13:31;28.90;50.00
22106;DHT22;11219;51.486;6.950;2022-07-23T13:15:58;28.80;50.10
22106;DHT22;11219;51.486;6.950;2022-07-23T13:18:26;29.00;50.00
22106;DHT22;11219;51.486;6.950;2022-07-23T13:20:53;29.00;49.80
22106;DHT22;11219;51.486;6.950;2022-07-23T13:23:21;29.10;49.80
22106;DHT22;11219;51.486;6.950;2022-07-23T13:25:48;29.30;49.90
22106;DHT22;11219;51.486;6.950;2022-07-23T13:28:17;30.90;50.40
22106;DHT22;11219;51.486;6.950;2022-07-23T13:30:47;29.80;49.00
22106;DHT22;11219;51.486;6.950;2022-07-23T13:33:15;30.00;49.10
22106;DHT22;11219;51.486;6.950;2022-07-23T13:35:42;30.00;49.10
22106;DHT22;11219;51.486;6.950;2022-07-23T13:38:10;30.10;48.70
22106;DHT22;11219;51.486;6.950;2022-07-23T13:40:38;30.30;48.50
22106;DHT22;11219;51.486;6.950;2022-07-23T13:43:06;30.20;48.10
22106;DHT22;11219;51.486;6.950;2022-07-23T13:45:33;30.20;48.00
22106;DHT22;11219;51.486;6.950;2022-07-23T13:48:03;30.20;47.80
22106;DHT22;11219;51.486;6.950;2022-07-23T13:50:30;30.30;48.20
22106;DHT22;11219;51.486;6.950;2022-07-23T13:52:57;30.50;47.70
22106;DHT22;11219;51.486;6.950;2022-07-23T13:55:26;30.60;47.60
22106;DHT22;11219;51.486;6.950;2022-07-23T13:57:53;30.70;47.40
22106;DHT22;11219;51.486;6.950;2022-07-23T14:00:20;30.60;47.00
22106;DHT22;11219;51.486;6.950;2022-07-23T14:02:47;31.80;47.90
22106;DHT22;11219;51.486;6.950;2022-07-23T14:05:15;30.40;47.00
22106;DHT22;11219;51.486;6.950;2022-07-23T14:07:42;30.30;47.10
22106;DHT22;11219;51.486;6.950;2022-07-23T14:10:11;30.30;47.10
22106;DHT22;11219;51.486;6.950;2022-07-23T14:12:37;30.20;47.20
22106;DHT22;11219;51.486;6.950;2022-07-23T14:15:05;30.20;47.20
22106;DHT22;11219;51.486;6.950;2022-07-23T14:17:34;30.30;47.20
22106;DHT22;11219;51.486;6.950;2022-07-23T14:20:01;30.40;47.50
22106;DHT22;11219;51.486;6.950;2022-07-23T14:22:29;31.10;47.50
22106;DHT22;11219;51.486;6.950;2022-07-23T14:24:56;33.60;48.80
22106;DHT22;11219;51.486;6.950;2022-07-23T14:27:24;31.20;47.30
22106;DHT22;11219;51.486;6.950;2022-07-23T14:29:51;31.40;47.10
22106;DHT22;11219;51.486;6.950;2022-07-23T14:32:19;31.80;46.80
22106;DHT22;11219;51.486;6.950;2022-07-23T14:34:46;31.30;46.60
22106;DHT22;11219;51.486;6.950;2022-07-23T14:37:13;31.10;46.80
22106;DHT22;11219;51.486;6.950;2022-07-23T14:39:42;31.00;47.10
22106;DHT22;11219;51.486;6.950;2022-07-23T14:42:10;31.00;47.10
22106;DHT22;11219;51.486;6.950;2022-07-23T14:44:38;30.60;47.10
22106;DHT22;11219;51.486;6.950;2022-07-23T14:47:05;30.40;47.30
22106;DHT22;11219;51.486;6.950;2022-07-23T14:49:32;30.30;47.60
22106;DHT22;11219;51.486;6.950;2022-07-23T14:51:59;30.10;47.80
22106;DHT22;11219;51.486;6.950;2022-07-23T14:54:27;30.20;48.10
22106;DHT22;11219;51.486;6.950;2022-07-23T14:56:56;30.00;48.20
22106;DHT22;11219;51.486;6.950;2022-07-23T14:59:24;29.40;48.40
22106;DHT22;11219;51.486;6.950;2022-07-23T15:01:52;29.30;48.60
22106;DHT22;11219;51.486;6.950;2022-07-23T15:04:19;29.30;48.80
22106;DHT22;11219;51.486;6.950;2022-07-23T15:06:46;30.70;49.50
22106;DHT22;11219;51.486;6.950;2022-07-23T15:09:14;30.10;48.70
22106;DHT22;11219;51.486;6.950;2022-07-23T15:11:41;30.00;48.20
22106;DHT22;11219;51.486;6.950;2022-07-23T15:14:10;30.20;47.90
22106;DHT22;11219;51.486;6.950;2022-07-23T15:16:37;30.20;47.60
22106;DHT22;11219;51.486;6.950;2022-07-23T15:19:04;30.10;47.60
22106;DHT22;11219;51.486;6.950;2022-07-23T15:21:31;30.50;47.90
22106;DHT22;11219;51.486;6.950;2022-07-23T15:23:58;30.10;47.50
22106;DHT22;11219;51.486;6.950;2022-07-23T15:26:25;30.80;47.80
22106;DHT22;11219;51.486;6.950;2022-07-23T15:28:52;30.00;47.40
22106;DHT22;11219;51.486;6.950;2022-07-23T15:31:21;29.90;47.60
22106;DHT22;11219;51.486;6.950;2022-07-23T15:33:48;30.00;47.80
22106;DHT22;11219;51.486;6.950;2022-07-23T15:36:17;30.50;47.90
22106;DHT22;11219;51.486;6.950;2022-07-23T15:38:44;30.40;47.30
22106;DHT22;11219;51.486;6.950;2022-07-23T15:41:11;30.50;47.10
22106;DHT22;11219;51.486;6.950;2022-07-23T15:43:38;32.10;47.60
22106;DHT22;11219;51.486;6.950;2022-07-23T15:46:05;31.00;46.70
22106;DHT22;11219;51.486;6.950;2022-07-23T15:48:35;30.90;46.60